EGPB/LSI METAR and TAF weather

Enter ICAO airport designator
Station Type Date Time Source
EGPB METAR 2024/04/17 19:20 UTC NOAA

EGPB 171920Z 00000KT 9999 FEW020 SCT035 06/02 Q1018


Station Type Date Time Source
EGPB Decoded METAR 2024/04/17 19:20 UTC NOAA

Sumburgh Cape , United Kingdom (EGPB) 59-53N 001-18W
Apr 17, 2024 - 03:20 PM EDT / 2024.04.17 1920 UTC
Wind: Calm:0
Visibility: greater than 7 mile(s):0
Sky conditions: partly cloudy
Temperature: 42 F (6 C)
Dew Point: 35 F (2 C)
Relative Humidity: 75%
Pressure (altimeter): 30.06 in. Hg (1018 hPa)
ob: EGPB 171920Z 00000KT 9999 FEW020 SCT035 06/02 Q1018
cycle: 19

Station Type Date Time Source
EGPB TAF UTC NOAA

Error!

Example: see airport list